createdAt,value
2023-04-23T00:00:12.857Z,20.93
2023-04-23T00:02:39.669Z,22.27
2023-04-23T00:05:06.995Z,20.90
2023-04-23T00:07:33.926Z,23.43
2023-04-23T00:10:01.193Z,24.03
2023-04-23T00:12:29.254Z,23.93
2023-04-23T00:14:56.024Z,27.23
2023-04-23T00:17:22.539Z,25.60
2023-04-23T00:19:49.041Z,25.20
2023-04-23T00:22:16.958Z,27.43
2023-04-23T00:24:43.982Z,27.67
2023-04-23T00:27:10.782Z,27.70
2023-04-23T00:29:37.492Z,26.73
2023-04-23T00:32:05.172Z,28.17
2023-04-23T00:34:32.377Z,25.87
2023-04-23T00:36:58.819Z,28.23
2023-04-23T00:39:25.370Z,26.93
2023-04-23T00:41:51.997Z,25.63
2023-04-23T00:44:18.443Z,25.40
2023-04-23T00:46:45.172Z,24.03
2023-04-23T00:49:12.915Z,26.90
2023-04-23T00:51:40.499Z,29.80
2023-04-23T00:54:07.320Z,29.07
2023-04-23T00:56:34.065Z,28.90
2023-04-23T00:59:02.868Z,29.90
2023-04-23T01:01:30.209Z,30.30
2023-04-23T01:03:57.009Z,27.70
2023-04-23T01:06:25.221Z,27.17
2023-04-23T01:08:52.073Z,29.00
2023-04-23T01:11:18.748Z,29.73
2023-04-23T01:13:45.582Z,29.77
2023-04-23T01:16:12.067Z,27.17
2023-04-23T01:18:40.899Z,31.07
2023-04-23T01:21:08.380Z,30.60
2023-04-23T01:23:34.918Z,30.07
2023-04-23T01:26:01.919Z,30.80
2023-04-23T01:28:29.026Z,29.60
2023-04-23T01:30:56.737Z,30.27
2023-04-23T01:33:23.391Z,30.90
2023-04-23T01:35:51.195Z,31.57
2023-04-23T01:38:18.206Z,30.73
2023-04-23T01:40:45.418Z,30.30
2023-04-23T01:43:12.380Z,30.30
2023-04-23T01:45:39.543Z,31.00
2023-04-23T01:48:06.372Z,31.30
2023-04-23T01:50:32.853Z,29.20
2023-04-23T01:52:59.351Z,28.03
2023-04-23T01:55:26.170Z,30.03
2023-04-23T01:57:52.881Z,29.10
2023-04-23T02:00:20.693Z,29.10
2023-04-23T02:02:47.382Z,28.50
2023-04-23T02:05:16.926Z,27.90
2023-04-23T02:07:43.870Z,27.60
2023-04-23T02:10:11.013Z,27.70
2023-04-23T02:12:37.824Z,26.10
2023-04-23T02:15:05.208Z,27.60
2023-04-23T02:17:31.838Z,26.03
2023-04-23T02:19:58.359Z,26.10
2023-04-23T02:22:26.510Z,26.10
2023-04-23T02:24:53.374Z,28.50
2023-04-23T02:27:20.311Z,26.00
2023-04-23T02:29:47.199Z,23.90
2023-04-23T02:32:13.716Z,26.77
2023-04-23T02:34:40.732Z,23.97
2023-04-23T02:37:07.504Z,24.33
2023-04-23T02:39:34.023Z,24.23
2023-04-23T02:42:00.835Z,25.00
2023-04-23T02:44:27.390Z,23.30
2023-04-23T02:46:53.994Z,23.40
2023-04-23T02:49:20.826Z,22.50
2023-04-23T02:51:47.291Z,20.03
2023-04-23T02:54:14.881Z,21.20
2023-04-23T02:56:41.381Z,18.50
2023-04-23T02:59:08.585Z,21.47
2023-04-23T03:01:35.760Z,19.20
2023-04-23T03:04:03.853Z,18.47
2023-04-23T03:06:32.038Z,19.50
2023-04-23T03:08:58.794Z,17.90
2023-04-23T03:11:25.271Z,17.50
2023-04-23T03:13:51.926Z,15.50
2023-04-23T03:16:18.597Z,15.37
2023-04-23T03:18:45.772Z,16.20
2023-04-23T03:21:12.820Z,18.87
2023-04-23T03:23:39.295Z,19.07
2023-04-23T03:26:06.019Z,16.27
2023-04-23T03:28:32.952Z,17.70
2023-04-23T03:30:59.630Z,19.77
2023-04-23T03:33:26.383Z,16.97
2023-04-23T03:35:53.211Z,15.90
2023-04-23T03:38:24.311Z,17.93
2023-04-23T03:40:52.825Z,17.07
2023-04-23T03:43:19.892Z,18.30
2023-04-23T03:46:18.801Z,17.20
2023-04-23T03:48:45.407Z,17.03
2023-04-23T03:51:18.916Z,56.30
2023-04-23T03:53:48.476Z,31.80
2023-04-23T03:56:33.298Z,102.90
2023-04-23T03:59:12.296Z,23.90
2023-04-23T04:01:39.019Z,17.07
2023-04-23T04:04:05.948Z,14.83
2023-04-23T04:06:33.110Z,17.10
2023-04-23T04:08:59.698Z,18.10
2023-04-23T04:11:26.815Z,15.67
2023-04-23T04:13:53.331Z,17.50
2023-04-23T04:16:20.029Z,15.97
2023-04-23T04:18:46.891Z,15.60
2023-04-23T04:21:13.414Z,16.00
2023-04-23T04:23:40.130Z,15.57
2023-04-23T04:26:07.989Z,13.67
2023-04-23T04:28:36.280Z,15.30
2023-04-23T04:31:03.404Z,15.73
2023-04-23T04:33:30.586Z,17.60
2023-04-23T04:35:57.390Z,14.00
2023-04-23T04:38:23.856Z,13.63
2023-04-23T04:40:50.786Z,14.73
2023-04-23T04:43:17.454Z,12.00
2023-04-23T04:45:44.998Z,11.03
2023-04-23T04:48:11.428Z,13.70
2023-04-23T04:50:39.033Z,11.60
2023-04-23T04:53:05.923Z,10.70
2023-04-23T04:55:32.419Z,10.57
2023-04-23T04:58:00.223Z,36.70
2023-04-23T05:00:28.438Z,26.63
2023-04-23T05:02:55.893Z,21.53
2023-04-23T05:05:23.250Z,17.83
2023-04-23T05:07:50.244Z,9.67
2023-04-23T05:10:16.834Z,9.03
2023-04-23T05:12:43.874Z,7.17
2023-04-23T05:15:13.451Z,8.50
2023-04-23T05:17:40.792Z,8.57
2023-04-23T05:20:10.389Z,8.27
2023-04-23T05:22:41.502Z,6.87
2023-04-23T05:25:08.639Z,7.23
2023-04-23T05:27:35.574Z,8.20
2023-04-23T05:30:02.816Z,7.10
2023-04-23T05:32:32.494Z,7.23
2023-04-23T05:35:02.835Z,7.83
2023-04-23T05:37:31.206Z,9.10
2023-04-23T05:39:58.211Z,7.93
2023-04-23T05:42:24.801Z,8.03
2023-04-23T05:44:51.737Z,8.73
2023-04-23T05:47:18.197Z,7.77
2023-04-23T05:49:44.867Z,6.50
2023-04-23T05:52:11.895Z,7.23
2023-04-23T05:54:38.766Z,6.60
2023-04-23T05:57:05.582Z,7.00
2023-04-23T05:59:32.133Z,8.20
2023-04-23T06:01:58.674Z,13.93
2023-04-23T06:04:25.441Z,8.00
2023-04-23T06:06:52.153Z,7.37
2023-04-23T06:09:18.654Z,5.10
2023-04-23T06:11:45.305Z,7.83
2023-04-23T06:14:11.826Z,6.77
2023-04-23T06:16:38.361Z,6.30
2023-04-23T06:19:05.054Z,8.30
2023-04-23T06:21:32.433Z,7.23
2023-04-23T06:23:58.978Z,6.47
2023-04-23T06:26:25.569Z,6.97
2023-04-23T06:28:55.109Z,7.03
2023-04-23T06:31:29.299Z,7.30
2023-04-23T06:33:55.973Z,6.90
2023-04-23T06:36:22.490Z,4.27
2023-04-23T06:38:49.351Z,6.30
2023-04-23T06:41:16.022Z,5.97
2023-04-23T06:43:42.519Z,8.57
2023-04-23T06:46:25.909Z,6.20
2023-04-23T06:48:52.457Z,6.40
2023-04-23T06:51:19.100Z,7.77
2023-04-23T06:53:46.382Z,8.10
2023-04-23T06:56:13.424Z,6.83
2023-04-23T06:58:41.133Z,6.80
2023-04-23T07:01:15.965Z,8.50
2023-04-23T07:03:45.215Z,5.10
2023-04-23T07:06:12.051Z,4.83
2023-04-23T07:08:39.726Z,6.20
2023-04-23T07:11:06.321Z,4.87
2023-04-23T07:13:32.794Z,4.70
2023-04-23T07:15:59.573Z,4.80
2023-04-23T07:18:26.250Z,5.60
2023-04-23T07:20:53.172Z,6.10
2023-04-23T07:23:19.833Z,5.00
2023-04-23T07:25:46.622Z,4.83
2023-04-23T07:28:13.544Z,6.20
2023-04-23T07:30:40.472Z,5.50
2023-04-23T07:33:07.131Z,7.63
2023-04-23T07:35:33.832Z,4.40
2023-04-23T07:38:00.516Z,2.90
2023-04-23T07:40:27.127Z,4.00
2023-04-23T07:42:53.768Z,6.67
2023-04-23T07:45:20.657Z,3.30
2023-04-23T07:47:48.241Z,2.87
2023-04-23T07:50:14.938Z,3.17
2023-04-23T07:52:42.903Z,8.27
2023-04-23T07:55:09.876Z,4.40
2023-04-23T07:57:36.627Z,5.53
2023-04-23T08:00:04.481Z,2.67
2023-04-23T08:02:51.832Z,2.83
2023-04-23T08:05:18.884Z,4.07
2023-04-23T08:07:45.784Z,2.07
2023-04-23T08:10:12.662Z,2.47
2023-04-23T08:12:39.568Z,6.43
2023-04-23T08:15:06.831Z,5.57
2023-04-23T08:17:38.610Z,3.20
2023-04-23T08:20:08.282Z,2.30
2023-04-23T08:22:34.946Z,3.30
2023-04-23T08:25:01.993Z,3.63
2023-04-23T08:27:28.677Z,5.83
2023-04-23T08:29:55.208Z,3.57
2023-04-23T08:32:22.396Z,2.87
2023-04-23T08:34:49.402Z,3.20
2023-04-23T08:37:29.590Z,3.90
2023-04-23T08:39:56.814Z,2.33
2023-04-23T08:42:29.409Z,1.80
2023-04-23T08:44:56.480Z,13.50
2023-04-23T08:47:24.545Z,1.30
2023-04-23T08:49:56.154Z,1.47
2023-04-23T08:52:23.749Z,2.80
2023-04-23T08:54:53.025Z,2.53
2023-04-23T08:57:20.077Z,2.60
2023-04-23T08:59:47.229Z,2.33
2023-04-23T09:02:16.091Z,2.90
2023-04-23T09:04:50.289Z,1.93
2023-04-23T09:07:18.410Z,1.90
2023-04-23T09:09:45.205Z,1.47
2023-04-23T09:12:12.035Z,1.20
2023-04-23T09:14:39.171Z,1.10
2023-04-23T09:17:06.355Z,1.13
2023-04-23T09:19:32.888Z,1.67
2023-04-23T09:22:02.032Z,1.17
2023-04-23T09:24:28.814Z,1.43
2023-04-23T09:26:55.438Z,1.03
2023-04-23T09:29:23.621Z,1.40
2023-04-23T09:32:07.052Z,0.93
2023-04-23T09:34:34.917Z,1.10
2023-04-23T09:37:01.583Z,1.40
2023-04-23T09:39:28.454Z,1.13
2023-04-23T09:41:55.071Z,0.87
2023-04-23T09:44:23.055Z,2.63
2023-04-23T09:46:50.186Z,1.27
2023-04-23T09:49:16.791Z,1.83
2023-04-23T09:51:43.565Z,1.00
2023-04-23T09:54:13.371Z,1.20
2023-04-23T09:56:41.117Z,1.13
2023-04-23T09:59:35.514Z,1.20
2023-04-23T10:02:11.369Z,0.93
2023-04-23T10:04:38.474Z,1.00
2023-04-23T10:07:18.967Z,1.03
2023-04-23T10:09:46.895Z,4.90
2023-04-23T10:12:33.335Z,13.90
2023-04-23T10:15:00.512Z,4.10
2023-04-23T10:17:27.718Z,3.23
2023-04-23T10:19:55.547Z,2.13
2023-04-23T10:22:22.747Z,2.97
2023-04-23T10:24:52.046Z,1.30
2023-04-23T10:29:49.392Z,1.17
2023-04-23T10:32:16.516Z,1.20
2023-04-23T10:34:43.216Z,3.67
2023-04-23T10:37:13.416Z,1.20
2023-04-23T10:39:42.986Z,1.03
2023-04-23T10:42:10.164Z,2.57
2023-04-23T10:47:12.313Z,1.80
2023-04-23T10:49:39.359Z,2.13
2023-04-23T10:52:19.690Z,1.83
2023-04-23T10:54:49.085Z,1.03
2023-04-23T10:57:15.873Z,1.10
2023-04-23T10:59:52.642Z,0.97
2023-04-23T11:02:19.271Z,2.80
2023-04-23T11:04:46.941Z,1.33
2023-04-23T11:07:14.053Z,8.40
2023-04-23T11:09:42.481Z,5.07
2023-04-23T11:12:11.429Z,1.30
2023-04-23T11:14:48.666Z,2.00
2023-04-23T11:17:16.113Z,2.17
2023-04-23T11:20:02.908Z,2.50
2023-04-23T11:22:44.599Z,2.07
2023-04-23T11:25:11.944Z,2.03
2023-04-23T11:27:42.376Z,0.90
2023-04-23T11:30:12.351Z,1.20
2023-04-23T11:32:39.665Z,1.67
2023-04-23T11:35:07.595Z,1.50
2023-04-23T11:37:38.328Z,1.37
2023-04-23T11:40:10.092Z,1.63
2023-04-23T11:42:53.921Z,1.20
2023-04-23T11:45:28.773Z,1.10
2023-04-23T11:47:56.703Z,1.60
2023-04-23T11:50:24.882Z,1.40
2023-04-23T11:52:52.690Z,0.93
2023-04-23T11:55:19.970Z,1.80
2023-04-23T11:57:48.447Z,1.33
2023-04-23T12:00:24.476Z,2.10
2023-04-23T12:02:51.475Z,1.40
2023-04-23T12:05:22.480Z,1.83
2023-04-23T12:07:50.697Z,2.93
2023-04-23T12:10:24.415Z,1.10
2023-04-23T12:12:54.064Z,1.30
2023-04-23T12:15:20.854Z,0.80
2023-04-23T12:17:51.379Z,0.80
2023-04-23T12:20:22.511Z,1.00
2023-04-23T12:22:49.231Z,1.40
2023-04-23T12:25:16.314Z,0.90
2023-04-23T12:27:44.639Z,1.43
2023-04-23T12:30:11.756Z,4.43
2023-04-23T12:32:38.822Z,3.00
2023-04-23T12:35:06.590Z,1.20
2023-04-23T12:37:35.361Z,1.00
2023-04-23T12:40:02.775Z,2.60
2023-04-23T12:42:29.347Z,1.40
2023-04-23T12:45:04.773Z,2.80
2023-04-23T12:47:31.545Z,0.90
2023-04-23T12:49:58.502Z,1.37
2023-04-23T12:52:25.172Z,1.10
2023-04-23T12:54:56.231Z,1.07
2023-04-23T12:57:24.414Z,1.77
2023-04-23T12:59:51.263Z,1.47
2023-04-23T13:02:18.063Z,1.93
2023-04-23T13:04:47.792Z,1.17
2023-04-23T13:07:14.396Z,1.30
2023-04-23T13:09:41.108Z,1.20
2023-04-23T13:12:07.820Z,1.47
2023-04-23T13:14:34.545Z,1.67
2023-04-23T13:17:01.428Z,1.30
2023-04-23T13:19:28.156Z,1.00
2023-04-23T13:21:54.778Z,2.57
2023-04-23T13:24:21.323Z,1.50
2023-04-23T13:26:47.828Z,2.63
2023-04-23T13:29:14.399Z,3.10
2023-04-23T13:31:41.044Z,2.93
2023-04-23T13:34:07.681Z,1.13
2023-04-23T13:36:34.377Z,1.60
2023-04-23T13:39:00.962Z,1.73
2023-04-23T13:41:27.477Z,1.77
2023-04-23T13:43:54.189Z,1.50
2023-04-23T13:46:20.811Z,1.53
2023-04-23T13:48:47.343Z,2.73
2023-04-23T13:51:30.675Z,1.73
2023-04-23T13:54:01.170Z,1.60
2023-04-23T13:56:27.839Z,1.50
2023-04-23T13:59:02.127Z,1.30
2023-04-23T14:01:34.995Z,1.07
2023-04-23T14:04:04.380Z,1.23
2023-04-23T14:06:31.657Z,1.63
2023-04-23T14:08:58.420Z,1.97
2023-04-23T14:11:25.162Z,2.07
2023-04-23T14:13:51.818Z,1.30
2023-04-23T14:16:18.504Z,1.70
2023-04-23T14:18:45.175Z,2.30
2023-04-23T14:21:13.221Z,1.63
2023-04-23T14:23:51.744Z,1.27
2023-04-23T14:29:03.878Z,1.17
2023-04-23T14:31:34.058Z,1.27
2023-04-23T14:34:01.024Z,1.40
2023-04-23T14:36:27.669Z,2.13
2023-04-23T14:38:54.504Z,1.53
2023-04-23T14:41:21.115Z,3.63
2023-04-23T14:43:47.746Z,1.17
2023-04-23T14:46:14.583Z,1.67
2023-04-23T14:48:41.433Z,1.87
2023-04-23T14:51:08.225Z,1.93
2023-04-23T14:53:34.943Z,2.60
2023-04-23T14:56:01.784Z,2.47
2023-04-23T14:58:29.637Z,2.50
2023-04-23T15:00:56.479Z,2.47
2023-04-23T15:03:23.207Z,2.00
2023-04-23T15:05:49.991Z,1.77
2023-04-23T15:08:16.684Z,2.63
2023-04-23T15:10:43.513Z,2.60
2023-04-23T15:13:13.224Z,2.07
2023-04-23T15:15:48.229Z,2.20
2023-04-23T15:18:17.090Z,1.90
2023-04-23T15:20:43.972Z,2.40
2023-04-23T15:23:10.932Z,2.87
2023-04-23T15:25:39.201Z,2.63
2023-04-23T15:28:06.013Z,2.70
2023-04-23T15:30:32.756Z,3.43
2023-04-23T15:32:59.625Z,3.20
2023-04-23T15:35:27.154Z,2.90
2023-04-23T15:37:54.252Z,2.70
2023-04-23T15:40:20.957Z,4.30
2023-04-23T15:42:49.967Z,2.70
2023-04-23T15:45:17.098Z,2.77
2023-04-23T15:47:44.027Z,2.37
2023-04-23T15:50:11.367Z,2.17
2023-04-23T15:52:38.063Z,1.57
2023-04-23T15:55:05.621Z,1.77
2023-04-23T15:57:32.373Z,2.20
2023-04-23T15:59:59.272Z,2.23
2023-04-23T16:02:26.197Z,2.53
2023-04-23T16:04:53.007Z,1.70
2023-04-23T16:07:19.813Z,1.33
2023-04-23T16:09:53.257Z,2.17
2023-04-23T16:12:19.952Z,2.30
2023-04-23T16:14:46.599Z,3.07
2023-04-23T16:17:13.280Z,3.30
2023-04-23T16:19:40.310Z,3.47
2023-04-23T16:22:07.050Z,2.10
2023-04-23T16:24:33.715Z,2.10
2023-04-23T16:27:01.889Z,2.20
2023-04-23T16:29:29.511Z,1.90
2023-04-23T16:31:56.131Z,2.10
2023-04-23T16:34:22.773Z,2.03
2023-04-23T16:36:49.352Z,1.63
2023-04-23T16:39:16.247Z,2.50
2023-04-23T16:41:42.851Z,2.23
2023-04-23T16:44:09.459Z,2.67
2023-04-23T16:46:36.504Z,2.20
2023-04-23T16:49:03.068Z,1.80
2023-04-23T16:51:29.884Z,2.20
2023-04-23T16:53:56.796Z,2.50
2023-04-23T16:56:23.619Z,1.60
2023-04-23T16:58:50.249Z,1.63
2023-04-23T17:01:17.846Z,2.10
2023-04-23T17:03:45.266Z,2.10
2023-04-23T17:06:20.131Z,1.47
2023-04-23T17:08:47.180Z,1.57
2023-04-23T17:11:13.994Z,1.40
2023-04-23T17:13:43.570Z,1.83
2023-04-23T17:16:10.415Z,1.97
2023-04-23T17:18:38.227Z,1.30
2023-04-23T17:21:04.828Z,1.40
2023-04-23T17:23:31.530Z,1.60
2023-04-23T17:25:58.191Z,1.33
2023-04-23T17:28:25.283Z,1.43
2023-04-23T17:30:53.872Z,2.30
2023-04-23T17:33:21.121Z,1.80
2023-04-23T17:35:51.892Z,1.27
2023-04-23T17:38:21.514Z,1.20
2023-04-23T17:40:48.639Z,1.30
2023-04-23T17:43:15.671Z,1.70
2023-04-23T17:45:42.754Z,1.53
2023-04-23T17:48:09.602Z,1.27
2023-04-23T17:50:36.338Z,1.27
2023-04-23T17:53:03.696Z,1.70
2023-04-23T17:55:33.044Z,1.63
2023-04-23T17:58:05.778Z,1.00
2023-04-23T18:00:36.643Z,1.10
2023-04-23T18:03:04.093Z,1.47
2023-04-23T18:05:31.202Z,1.23
2023-04-23T18:07:58.108Z,1.30
2023-04-23T18:10:24.844Z,1.20
2023-04-23T18:12:51.669Z,1.20
2023-04-23T18:15:18.483Z,1.20
2023-04-23T18:17:45.484Z,1.10
2023-04-23T18:20:12.696Z,1.00
2023-04-23T18:22:40.245Z,1.10
2023-04-23T18:25:07.600Z,0.83
2023-04-23T18:27:34.481Z,0.80
2023-04-23T18:30:01.109Z,1.20
2023-04-23T18:32:34.477Z,1.20
2023-04-23T18:35:02.488Z,0.90
2023-04-23T18:37:45.620Z,1.10
2023-04-23T18:40:18.175Z,1.67
2023-04-23T18:42:44.747Z,1.00
2023-04-23T18:45:11.970Z,0.83
2023-04-23T18:47:44.299Z,0.90
2023-04-23T18:50:29.561Z,0.90
2023-04-23T18:52:56.252Z,0.60
2023-04-23T18:55:22.818Z,0.70
2023-04-23T18:57:49.375Z,0.70
2023-04-23T19:00:16.024Z,0.70
2023-04-23T19:02:42.658Z,0.60
2023-04-23T19:05:09.320Z,0.60
2023-04-23T19:07:37.305Z,0.77
2023-04-23T19:10:04.712Z,1.37
2023-04-23T19:12:31.470Z,0.77
2023-04-23T19:14:58.108Z,0.70
2023-04-23T19:17:24.851Z,0.60
2023-04-23T19:19:51.556Z,0.70
2023-04-23T19:22:18.179Z,0.60
2023-04-23T19:24:45.120Z,0.50
2023-04-23T19:27:11.907Z,0.50
2023-04-23T19:29:38.737Z,0.60
2023-04-23T19:32:05.750Z,0.70
2023-04-23T19:34:32.883Z,0.53
2023-04-23T19:36:59.457Z,0.70
2023-04-23T19:39:26.939Z,0.67
2023-04-23T19:41:56.450Z,0.67
2023-04-23T19:44:23.080Z,0.60
2023-04-23T19:46:49.938Z,0.70
2023-04-23T19:49:16.888Z,0.67
2023-04-23T19:51:43.819Z,0.70
2023-04-23T19:54:10.780Z,0.90
2023-04-23T19:56:37.395Z,0.53
2023-04-23T19:59:09.715Z,0.70
2023-04-23T20:01:36.329Z,0.70
2023-04-23T20:04:07.075Z,0.80
2023-04-23T20:06:34.102Z,0.60
2023-04-23T20:09:07.766Z,0.90
2023-04-23T20:11:35.928Z,1.07
2023-04-23T20:14:03.489Z,0.87
2023-04-23T20:16:30.657Z,0.80
2023-04-23T20:18:57.792Z,0.80
2023-04-23T20:21:24.912Z,0.80
2023-04-23T20:23:53.845Z,0.70
2023-04-23T20:26:20.479Z,1.40
2023-04-23T20:28:48.444Z,1.07
2023-04-23T20:31:15.085Z,0.80
2023-04-23T20:33:41.892Z,0.77
2023-04-23T20:36:10.226Z,0.80
2023-04-23T20:38:38.216Z,0.87
2023-04-23T20:41:05.442Z,0.70
2023-04-23T20:43:33.362Z,0.80
2023-04-23T20:46:00.380Z,0.70
2023-04-23T20:48:29.612Z,0.60
2023-04-23T20:50:57.312Z,0.67
2023-04-23T20:53:24.269Z,0.70
2023-04-23T20:55:50.876Z,0.70
2023-04-23T20:58:17.892Z,0.63
2023-04-23T21:00:44.574Z,0.63
2023-04-23T21:03:11.804Z,0.60
2023-04-23T21:05:40.548Z,0.70
2023-04-23T21:08:08.269Z,0.87
2023-04-23T21:10:34.857Z,0.80
2023-04-23T21:13:01.660Z,0.70
2023-04-23T21:15:32.546Z,0.80
2023-04-23T21:17:59.135Z,0.60
2023-04-23T21:20:26.278Z,0.87
2023-04-23T21:22:52.840Z,0.77
2023-04-23T21:25:19.555Z,1.00
2023-04-23T21:27:48.648Z,0.93
2023-04-23T21:30:31.681Z,0.70
2023-04-23T21:32:58.340Z,0.90
2023-04-23T21:35:25.103Z,0.60
2023-04-23T21:37:51.685Z,1.50
2023-04-23T21:40:18.331Z,1.33
2023-04-23T21:42:47.543Z,0.60
2023-04-23T21:45:14.107Z,0.60
2023-04-23T21:47:41.373Z,0.70
2023-04-23T21:50:09.844Z,0.90
2023-04-23T21:52:37.827Z,0.60
2023-04-23T21:55:05.266Z,0.90
2023-04-23T21:57:33.130Z,0.77
2023-04-23T21:59:59.915Z,1.30
2023-04-23T22:02:27.207Z,0.70
2023-04-23T22:04:53.873Z,0.77
2023-04-23T22:07:21.598Z,0.80
2023-04-23T22:09:48.157Z,0.80
2023-04-23T22:12:14.960Z,0.80
2023-04-23T22:14:41.673Z,0.80
2023-04-23T22:17:08.944Z,0.73
2023-04-23T22:19:35.786Z,0.87
2023-04-23T22:22:02.486Z,1.10
2023-04-23T22:24:29.136Z,0.90
2023-04-23T22:26:55.865Z,1.23
2023-04-23T22:29:22.441Z,0.90
2023-04-23T22:31:49.196Z,1.20
2023-04-23T22:34:15.760Z,0.93
2023-04-23T22:36:43.208Z,0.67
2023-04-23T22:39:10.797Z,0.80
2023-04-23T22:41:38.811Z,1.03
2023-04-23T22:44:05.507Z,0.80
2023-04-23T22:46:33.504Z,1.00
2023-04-23T22:49:01.353Z,1.23
2023-04-23T22:51:28.111Z,1.10
2023-04-23T22:53:54.755Z,1.00
2023-04-23T22:56:21.404Z,1.47
2023-04-23T22:58:48.006Z,1.10
2023-04-23T23:01:14.505Z,1.03
2023-04-23T23:03:41.096Z,1.43
2023-04-23T23:06:07.772Z,1.30
2023-04-23T23:08:34.287Z,1.00
2023-04-23T23:11:01.154Z,1.20
2023-04-23T23:13:29.000Z,1.67
2023-04-23T23:15:55.723Z,1.37
2023-04-23T23:18:22.288Z,1.40
2023-04-23T23:20:48.997Z,1.47
2023-04-23T23:23:15.550Z,1.20
2023-04-23T23:25:42.100Z,1.60
2023-04-23T23:28:08.907Z,1.10
2023-04-23T23:30:35.433Z,1.13
2023-04-23T23:33:02.188Z,1.57
2023-04-23T23:35:28.962Z,1.10
2023-04-23T23:37:56.028Z,1.43
2023-04-23T23:40:22.941Z,1.97
2023-04-23T23:42:49.549Z,1.90
2023-04-23T23:45:16.072Z,1.33
2023-04-23T23:47:42.669Z,1.63
2023-04-23T23:50:09.667Z,2.03
2023-04-23T23:52:36.306Z,2.10
2023-04-23T23:55:02.882Z,2.13
2023-04-23T23:57:29.440Z,1.80
2023-04-23T23:59:56.389Z,1.70
